sensor_id;sensor_type;location;lat;lon;timestamp;P1;durP1;ratioP1;P2;durP2;ratioP2
14342;SDS011;7255;53.596;9.960;2022-07-06T00:02:14;4.57;;;1.80;;
14342;SDS011;7255;53.596;9.960;2022-07-06T00:04:40;4.30;;;1.80;;
14342;SDS011;7255;53.596;9.960;2022-07-06T00:07:07;4.97;;;2.22;;
14342;SDS011;7255;53.596;9.960;2022-07-06T00:09:33;4.23;;;1.97;;
14342;SDS011;7255;53.596;9.960;2022-07-06T00:12:00;4.47;;;1.80;;
14342;SDS011;7255;53.596;9.960;2022-07-06T00:14:27;4.45;;;1.75;;
14342;SDS011;7255;53.596;9.960;2022-07-06T00:16:53;3.65;;;1.50;;
14342;SDS011;7255;53.596;9.960;2022-07-06T00:19:20;3.05;;;1.77;;
14342;SDS011;7255;53.596;9.960;2022-07-06T00:21:46;3.77;;;1.70;;
14342;SDS011;7255;53.596;9.960;2022-07-06T00:24:12;3.67;;;1.70;;
14342;SDS011;7255;53.596;9.960;2022-07-06T00:26:39;4.55;;;1.85;;
14342;SDS011;7255;53.596;9.960;2022-07-06T00:29:05;3.97;;;1.80;;
14342;SDS011;7255;53.596;9.960;2022-07-06T00:31:33;4.75;;;2.08;;
14342;SDS011;7255;53.596;9.960;2022-07-06T00:34:00;4.95;;;1.60;;
14342;SDS011;7255;53.596;9.960;2022-07-06T00:36:26;4.32;;;1.83;;
14342;SDS011;7255;53.596;9.960;2022-07-06T00:38:52;2.83;;;1.50;;
14342;SDS011;7255;53.596;9.960;2022-07-06T00:41:19;4.37;;;1.73;;
14342;SDS011;7255;53.596;9.960;2022-07-06T00:43:48;4.28;;;1.52;;
14342;SDS011;7255;53.596;9.960;2022-07-06T00:46:16;3.60;;;1.80;;
14342;SDS011;7255;53.596;9.960;2022-07-06T00:48:44;3.37;;;1.52;;
14342;SDS011;7255;53.596;9.960;2022-07-06T00:51:10;3.62;;;1.92;;
14342;SDS011;7255;53.596;9.960;2022-07-06T00:53:37;5.55;;;1.90;;
14342;SDS011;7255;53.596;9.960;2022-07-06T00:56:04;4.82;;;2.00;;
14342;SDS011;7255;53.596;9.960;2022-07-06T00:58:30;4.20;;;1.70;;
14342;SDS011;7255;53.596;9.960;2022-07-06T01:00:57;3.83;;;1.48;;
14342;SDS011;7255;53.596;9.960;2022-07-06T01:03:23;3.30;;;1.53;;
14342;SDS011;7255;53.596;9.960;2022-07-06T01:05:51;4.12;;;1.70;;
14342;SDS011;7255;53.596;9.960;2022-07-06T01:08:17;4.07;;;1.80;;
14342;SDS011;7255;53.596;9.960;2022-07-06T01:10:44;4.05;;;1.80;;
14342;SDS011;7255;53.596;9.960;2022-07-06T01:13:10;3.28;;;1.70;;
14342;SDS011;7255;53.596;9.960;2022-07-06T01:15:37;4.10;;;1.83;;
14342;SDS011;7255;53.596;9.960;2022-07-06T01:18:03;4.03;;;1.73;;
14342;SDS011;7255;53.596;9.960;2022-07-06T01:20:31;5.68;;;2.10;;
14342;SDS011;7255;53.596;9.960;2022-07-06T01:22:58;4.10;;;1.70;;
14342;SDS011;7255;53.596;9.960;2022-07-06T01:25:25;4.93;;;2.00;;
14342;SDS011;7255;53.596;9.960;2022-07-06T01:27:52;5.60;;;2.05;;
14342;SDS011;7255;53.596;9.960;2022-07-06T01:30:18;4.00;;;2.08;;
14342;SDS011;7255;53.596;9.960;2022-07-06T01:32:45;5.28;;;1.92;;
14342;SDS011;7255;53.596;9.960;2022-07-06T01:35:12;3.92;;;1.95;;
14342;SDS011;7255;53.596;9.960;2022-07-06T01:37:41;4.87;;;1.77;;
14342;SDS011;7255;53.596;9.960;2022-07-06T01:40:09;2.53;;;1.87;;
14342;SDS011;7255;53.596;9.960;2022-07-06T01:42:37;5.62;;;1.70;;
14342;SDS011;7255;53.596;9.960;2022-07-06T01:45:04;5.00;;;2.00;;
14342;SDS011;7255;53.596;9.960;2022-07-06T01:47:31;3.70;;;2.03;;
14342;SDS011;7255;53.596;9.960;2022-07-06T01:49:58;5.50;;;2.00;;
14342;SDS011;7255;53.596;9.960;2022-07-06T01:52:25;4.50;;;1.83;;
14342;SDS011;7255;53.596;9.960;2022-07-06T01:54:53;4.53;;;1.90;;
14342;SDS011;7255;53.596;9.960;2022-07-06T01:57:19;4.35;;;2.30;;
14342;SDS011;7255;53.596;9.960;2022-07-06T01:59:45;4.05;;;1.80;;
14342;SDS011;7255;53.596;9.960;2022-07-06T02:02:12;5.20;;;2.00;;
14342;SDS011;7255;53.596;9.960;2022-07-06T02:04:38;5.12;;;2.00;;
14342;SDS011;7255;53.596;9.960;2022-07-06T02:07:04;3.00;;;1.90;;
14342;SDS011;7255;53.596;9.960;2022-07-06T02:09:31;3.95;;;1.70;;
14342;SDS011;7255;53.596;9.960;2022-07-06T02:11:58;5.03;;;1.85;;
14342;SDS011;7255;53.596;9.960;2022-07-06T02:14:25;3.87;;;1.87;;
14342;SDS011;7255;53.596;9.960;2022-07-06T02:16:51;5.93;;;2.00;;
14342;SDS011;7255;53.596;9.960;2022-07-06T02:19:17;6.00;;;2.40;;
14342;SDS011;7255;53.596;9.960;2022-07-06T02:21:44;4.30;;;1.75;;
14342;SDS011;7255;53.596;9.960;2022-07-06T02:24:10;5.50;;;2.05;;
14342;SDS011;7255;53.596;9.960;2022-07-06T02:26:36;3.97;;;2.20;;
14342;SDS011;7255;53.596;9.960;2022-07-06T02:29:04;4.65;;;1.80;;
14342;SDS011;7255;53.596;9.960;2022-07-06T02:31:30;4.85;;;1.90;;
14342;SDS011;7255;53.596;9.960;2022-07-06T02:33:57;4.95;;;2.15;;
14342;SDS011;7255;53.596;9.960;2022-07-06T02:36:23;3.83;;;2.20;;
14342;SDS011;7255;53.596;9.960;2022-07-06T02:38:49;3.87;;;1.87;;
14342;SDS011;7255;53.596;9.960;2022-07-06T02:41:16;6.12;;;2.10;;
14342;SDS011;7255;53.596;9.960;2022-07-06T02:43:42;5.57;;;1.70;;
14342;SDS011;7255;53.596;9.960;2022-07-06T02:46:10;5.47;;;2.15;;
14342;SDS011;7255;53.596;9.960;2022-07-06T02:48:36;5.03;;;2.03;;
14342;SDS011;7255;53.596;9.960;2022-07-06T02:51:03;5.43;;;2.08;;
14342;SDS011;7255;53.596;9.960;2022-07-06T02:53:29;3.97;;;2.00;;
14342;SDS011;7255;53.596;9.960;2022-07-06T02:55:56;4.62;;;1.73;;
14342;SDS011;7255;53.596;9.960;2022-07-06T02:58:22;4.03;;;1.65;;
14342;SDS011;7255;53.596;9.960;2022-07-06T03:00:48;4.12;;;1.77;;
14342;SDS011;7255;53.596;9.960;2022-07-06T03:03:16;4.60;;;1.80;;
14342;SDS011;7255;53.596;9.960;2022-07-06T03:05:42;3.80;;;1.50;;
14342;SDS011;7255;53.596;9.960;2022-07-06T03:08:09;4.90;;;2.00;;
14342;SDS011;7255;53.596;9.960;2022-07-06T03:10:35;3.90;;;1.67;;
14342;SDS011;7255;53.596;9.960;2022-07-06T03:13:01;4.68;;;2.00;;
14342;SDS011;7255;53.596;9.960;2022-07-06T03:15:28;3.83;;;1.77;;
14342;SDS011;7255;53.596;9.960;2022-07-06T03:17:54;3.40;;;1.90;;
14342;SDS011;7255;53.596;9.960;2022-07-06T03:20:22;4.35;;;1.80;;
14342;SDS011;7255;53.596;9.960;2022-07-06T03:22:48;5.13;;;2.20;;
14342;SDS011;7255;53.596;9.960;2022-07-06T03:25:14;3.97;;;1.70;;
14342;SDS011;7255;53.596;9.960;2022-07-06T03:27:40;4.60;;;2.00;;
14342;SDS011;7255;53.596;9.960;2022-07-06T03:30:07;3.65;;;1.85;;
14342;SDS011;7255;53.596;9.960;2022-07-06T03:32:34;5.83;;;1.93;;
14342;SDS011;7255;53.596;9.960;2022-07-06T03:35:00;5.30;;;2.37;;
14342;SDS011;7255;53.596;9.960;2022-07-06T03:37:28;4.72;;;2.10;;
14342;SDS011;7255;53.596;9.960;2022-07-06T03:39:54;4.50;;;2.08;;
14342;SDS011;7255;53.596;9.960;2022-07-06T03:42:20;4.93;;;2.05;;
14342;SDS011;7255;53.596;9.960;2022-07-06T03:44:47;5.50;;;2.28;;
14342;SDS011;7255;53.596;9.960;2022-07-06T03:47:13;6.30;;;1.90;;
14342;SDS011;7255;53.596;9.960;2022-07-06T03:49:39;3.92;;;1.80;;
14342;SDS011;7255;53.596;9.960;2022-07-06T03:52:06;3.95;;;2.00;;
14342;SDS011;7255;53.596;9.960;2022-07-06T03:54:33;3.78;;;1.98;;
14342;SDS011;7255;53.596;9.960;2022-07-06T03:57:00;4.27;;;1.90;;
14342;SDS011;7255;53.596;9.960;2022-07-06T03:59:26;3.80;;;1.60;;
14342;SDS011;7255;53.596;9.960;2022-07-06T04:01:52;4.05;;;2.00;;
14342;SDS011;7255;53.596;9.960;2022-07-06T04:04:19;7.35;;;2.05;;
14342;SDS011;7255;53.596;9.960;2022-07-06T04:06:45;4.28;;;1.98;;
14342;SDS011;7255;53.596;9.960;2022-07-06T04:09:11;4.85;;;1.90;;
14342;SDS011;7255;53.596;9.960;2022-07-06T04:11:39;3.47;;;1.87;;
14342;SDS011;7255;53.596;9.960;2022-07-06T04:14:05;4.72;;;1.95;;
14342;SDS011;7255;53.596;9.960;2022-07-06T04:16:32;5.03;;;1.77;;
14342;SDS011;7255;53.596;9.960;2022-07-06T04:18:58;4.35;;;1.85;;
14342;SDS011;7255;53.596;9.960;2022-07-06T04:21:24;1.98;;;1.35;;
14342;SDS011;7255;53.596;9.960;2022-07-06T04:23:50;4.97;;;2.10;;
14342;SDS011;7255;53.596;9.960;2022-07-06T04:26:17;4.65;;;1.90;;
14342;SDS011;7255;53.596;9.960;2022-07-06T04:28:44;4.10;;;1.70;;
14342;SDS011;7255;53.596;9.960;2022-07-06T04:31:11;4.35;;;2.05;;
14342;SDS011;7255;53.596;9.960;2022-07-06T04:33:40;4.45;;;1.65;;
14342;SDS011;7255;53.596;9.960;2022-07-06T04:36:06;4.25;;;1.90;;
14342;SDS011;7255;53.596;9.960;2022-07-06T04:38:32;4.62;;;1.83;;
14342;SDS011;7255;53.596;9.960;2022-07-06T04:40:59;4.85;;;2.00;;
14342;SDS011;7255;53.596;9.960;2022-07-06T04:43:25;4.40;;;1.87;;
14342;SDS011;7255;53.596;9.960;2022-07-06T04:45:53;4.97;;;1.95;;
14342;SDS011;7255;53.596;9.960;2022-07-06T04:48:19;3.62;;;1.77;;
14342;SDS011;7255;53.596;9.960;2022-07-06T04:50:45;4.32;;;1.60;;
14342;SDS011;7255;53.596;9.960;2022-07-06T04:53:11;5.45;;;1.95;;
14342;SDS011;7255;53.596;9.960;2022-07-06T04:55:38;5.43;;;1.85;;
14342;SDS011;7255;53.596;9.960;2022-07-06T04:58:04;3.03;;;1.50;;
14342;SDS011;7255;53.596;9.960;2022-07-06T05:00:30;5.30;;;1.70;;
14342;SDS011;7255;53.596;9.960;2022-07-06T05:02:58;4.00;;;1.65;;
14342;SDS011;7255;53.596;9.960;2022-07-06T05:05:24;7.23;;;1.80;;
14342;SDS011;7255;53.596;9.960;2022-07-06T05:07:51;3.90;;;1.60;;
14342;SDS011;7255;53.596;9.960;2022-07-06T05:10:17;5.12;;;2.03;;
14342;SDS011;7255;53.596;9.960;2022-07-06T05:12:43;4.70;;;1.73;;
14342;SDS011;7255;53.596;9.960;2022-07-06T05:15:10;5.00;;;1.90;;
14342;SDS011;7255;53.596;9.960;2022-07-06T05:17:36;3.57;;;1.60;;
14342;SDS011;7255;53.596;9.960;2022-07-06T05:20:05;5.12;;;2.00;;
14342;SDS011;7255;53.596;9.960;2022-07-06T05:22:32;6.60;;;1.90;;
14342;SDS011;7255;53.596;9.960;2022-07-06T05:24:59;3.92;;;1.85;;
14342;SDS011;7255;53.596;9.960;2022-07-06T05:27:25;5.43;;;1.60;;
14342;SDS011;7255;53.596;9.960;2022-07-06T05:29:51;5.70;;;1.95;;
14342;SDS011;7255;53.596;9.960;2022-07-06T05:32:17;3.13;;;1.47;;
14342;SDS011;7255;53.596;9.960;2022-07-06T05:34:44;5.50;;;1.60;;
14342;SDS011;7255;53.596;9.960;2022-07-06T05:37:11;5.20;;;1.87;;
14342;SDS011;7255;53.596;9.960;2022-07-06T05:39:38;4.05;;;1.60;;
14342;SDS011;7255;53.596;9.960;2022-07-06T05:42:04;4.18;;;1.67;;
14342;SDS011;7255;53.596;9.960;2022-07-06T05:44:31;4.60;;;2.00;;
14342;SDS011;7255;53.596;9.960;2022-07-06T05:46:58;6.00;;;1.67;;
14342;SDS011;7255;53.596;9.960;2022-07-06T05:49:47;5.28;;;1.70;;
14342;SDS011;7255;53.596;9.960;2022-07-06T05:52:32;5.03;;;1.85;;
14342;SDS011;7255;53.596;9.960;2022-07-06T05:54:58;4.80;;;1.77;;
14342;SDS011;7255;53.596;9.960;2022-07-06T05:57:25;5.70;;;1.90;;
14342;SDS011;7255;53.596;9.960;2022-07-06T05:59:51;5.00;;;1.75;;
14342;SDS011;7255;53.596;9.960;2022-07-06T06:02:17;5.05;;;1.77;;
14342;SDS011;7255;53.596;9.960;2022-07-06T06:04:44;4.32;;;1.67;;
14342;SDS011;7255;53.596;9.960;2022-07-06T06:07:10;3.58;;;1.58;;
14342;SDS011;7255;53.596;9.960;2022-07-06T06:09:37;5.18;;;1.85;;
14342;SDS011;7255;53.596;9.960;2022-07-06T06:12:04;2.87;;;1.47;;
14342;SDS011;7255;53.596;9.960;2022-07-06T06:14:31;4.45;;;1.65;;
14342;SDS011;7255;53.596;9.960;2022-07-06T06:16:57;4.20;;;1.53;;
14342;SDS011;7255;53.596;9.960;2022-07-06T06:19:23;4.17;;;1.70;;
14342;SDS011;7255;53.596;9.960;2022-07-06T06:21:50;3.55;;;1.62;;
14342;SDS011;7255;53.596;9.960;2022-07-06T06:24:17;5.30;;;1.80;;
14342;SDS011;7255;53.596;9.960;2022-07-06T06:26:45;3.95;;;1.75;;
14342;SDS011;7255;53.596;9.960;2022-07-06T06:29:11;5.07;;;1.83;;
14342;SDS011;7255;53.596;9.960;2022-07-06T06:31:38;5.18;;;1.95;;
14342;SDS011;7255;53.596;9.960;2022-07-06T06:34:04;3.42;;;1.60;;
14342;SDS011;7255;53.596;9.960;2022-07-06T06:36:30;3.75;;;1.40;;
14342;SDS011;7255;53.596;9.960;2022-07-06T06:38:56;3.33;;;1.42;;
14342;SDS011;7255;53.596;9.960;2022-07-06T06:41:23;3.72;;;1.40;;
14342;SDS011;7255;53.596;9.960;2022-07-06T06:43:50;4.18;;;1.40;;
14342;SDS011;7255;53.596;9.960;2022-07-06T06:46:17;4.22;;;1.40;;
14342;SDS011;7255;53.596;9.960;2022-07-06T06:48:43;2.92;;;1.30;;
14342;SDS011;7255;53.596;9.960;2022-07-06T06:51:09;5.20;;;1.60;;
14342;SDS011;7255;53.596;9.960;2022-07-06T06:53:36;3.08;;;1.30;;
14342;SDS011;7255;53.596;9.960;2022-07-06T06:56:02;4.75;;;1.67;;
14342;SDS011;7255;53.596;9.960;2022-07-06T06:58:28;3.60;;;1.55;;
14342;SDS011;7255;53.596;9.960;2022-07-06T07:00:56;4.70;;;1.70;;
14342;SDS011;7255;53.596;9.960;2022-07-06T07:03:22;3.53;;;1.80;;
14342;SDS011;7255;53.596;9.960;2022-07-06T07:05:48;4.05;;;1.83;;
14342;SDS011;7255;53.596;9.960;2022-07-06T07:08:15;4.87;;;1.75;;
14342;SDS011;7255;53.596;9.960;2022-07-06T07:10:41;4.37;;;1.85;;
14342;SDS011;7255;53.596;9.960;2022-07-06T07:13:08;5.37;;;1.70;;
14342;SDS011;7255;53.596;9.960;2022-07-06T07:15:34;3.75;;;1.52;;
14342;SDS011;7255;53.596;9.960;2022-07-06T07:18:02;4.10;;;1.70;;
14342;SDS011;7255;53.596;9.960;2022-07-06T07:20:29;5.82;;;1.87;;
14342;SDS011;7255;53.596;9.960;2022-07-06T07:22:57;4.87;;;1.50;;
14342;SDS011;7255;53.596;9.960;2022-07-06T07:25:24;3.50;;;1.62;;
14342;SDS011;7255;53.596;9.960;2022-07-06T07:27:50;5.45;;;1.65;;
14342;SDS011;7255;53.596;9.960;2022-07-06T07:30:16;4.53;;;1.47;;
14342;SDS011;7255;53.596;9.960;2022-07-06T07:32:43;6.25;;;1.70;;
14342;SDS011;7255;53.596;9.960;2022-07-06T07:35:11;2.60;;;1.10;;
14342;SDS011;7255;53.596;9.960;2022-07-06T07:37:37;3.67;;;1.30;;
14342;SDS011;7255;53.596;9.960;2022-07-06T07:40:04;2.67;;;1.05;;
14342;SDS011;7255;53.596;9.960;2022-07-06T07:42:31;1.65;;;1.02;;
14342;SDS011;7255;53.596;9.960;2022-07-06T07:44:58;2.55;;;1.00;;
14342;SDS011;7255;53.596;9.960;2022-07-06T07:47:24;2.08;;;0.90;;
14342;SDS011;7255;53.596;9.960;2022-07-06T07:49:51;1.73;;;1.00;;
14342;SDS011;7255;53.596;9.960;2022-07-06T07:52:18;3.90;;;1.00;;
14342;SDS011;7255;53.596;9.960;2022-07-06T07:54:45;2.92;;;1.35;;
14342;SDS011;7255;53.596;9.960;2022-07-06T07:57:11;4.12;;;1.27;;
14342;SDS011;7255;53.596;9.960;2022-07-06T07:59:37;1.58;;;0.98;;
14342;SDS011;7255;53.596;9.960;2022-07-06T08:02:04;1.70;;;1.00;;
14342;SDS011;7255;53.596;9.960;2022-07-06T08:04:30;2.58;;;1.05;;
14342;SDS011;7255;53.596;9.960;2022-07-06T08:06:56;2.15;;;1.10;;
14342;SDS011;7255;53.596;9.960;2022-07-06T08:09:24;3.95;;;1.12;;
14342;SDS011;7255;53.596;9.960;2022-07-06T08:11:50;2.20;;;1.10;;
14342;SDS011;7255;53.596;9.960;2022-07-06T08:14:16;2.73;;;1.17;;
14342;SDS011;7255;53.596;9.960;2022-07-06T08:16:43;3.90;;;1.12;;
14342;SDS011;7255;53.596;9.960;2022-07-06T08:19:09;2.35;;;1.00;;
14342;SDS011;7255;53.596;9.960;2022-07-06T08:21:39;3.45;;;1.50;;
14342;SDS011;7255;53.596;9.960;2022-07-06T08:24:05;3.47;;;1.17;;
14342;SDS011;7255;53.596;9.960;2022-07-06T08:26:33;1.87;;;1.00;;
14342;SDS011;7255;53.596;9.960;2022-07-06T08:29:00;2.75;;;1.12;;
14342;SDS011;7255;53.596;9.960;2022-07-06T08:31:27;3.15;;;1.23;;
14342;SDS011;7255;53.596;9.960;2022-07-06T08:33:53;3.30;;;1.23;;
14342;SDS011;7255;53.596;9.960;2022-07-06T08:36:21;3.35;;;1.20;;
14342;SDS011;7255;53.596;9.960;2022-07-06T08:38:48;3.60;;;1.30;;
14342;SDS011;7255;53.596;9.960;2022-07-06T08:41:15;3.40;;;1.37;;
14342;SDS011;7255;53.596;9.960;2022-07-06T08:43:43;3.05;;;1.15;;
14342;SDS011;7255;53.596;9.960;2022-07-06T08:46:09;2.78;;;1.20;;
14342;SDS011;7255;53.596;9.960;2022-07-06T08:48:39;2.92;;;1.40;;
14342;SDS011;7255;53.596;9.960;2022-07-06T08:51:07;2.80;;;1.12;;
14342;SDS011;7255;53.596;9.960;2022-07-06T08:53:33;2.00;;;1.20;;
14342;SDS011;7255;53.596;9.960;2022-07-06T08:56:00;2.53;;;1.10;;
14342;SDS011;7255;53.596;9.960;2022-07-06T08:58:27;3.75;;;1.33;;
14342;SDS011;7255;53.596;9.960;2022-07-06T09:00:55;2.80;;;1.40;;
14342;SDS011;7255;53.596;9.960;2022-07-06T09:03:22;2.45;;;1.10;;
14342;SDS011;7255;53.596;9.960;2022-07-06T09:05:50;4.10;;;1.55;;
14342;SDS011;7255;53.596;9.960;2022-07-06T09:08:16;3.43;;;1.50;;
14342;SDS011;7255;53.596;9.960;2022-07-06T09:10:44;3.45;;;1.10;;
14342;SDS011;7255;53.596;9.960;2022-07-06T09:13:10;2.85;;;1.10;;
14342;SDS011;7255;53.596;9.960;2022-07-06T09:15:37;1.00;;;0.90;;
14342;SDS011;7255;53.596;9.960;2022-07-06T09:18:06;1.52;;;0.73;;
14342;SDS011;7255;53.596;9.960;2022-07-06T09:20:33;2.50;;;1.10;;
14342;SDS011;7255;53.596;9.960;2022-07-06T09:23:00;2.03;;;0.90;;
14342;SDS011;7255;53.596;9.960;2022-07-06T09:25:28;2.45;;;1.10;;
14342;SDS011;7255;53.596;9.960;2022-07-06T09:27:56;2.07;;;0.97;;
14342;SDS011;7255;53.596;9.960;2022-07-06T09:30:23;2.83;;;1.20;;
14342;SDS011;7255;53.596;9.960;2022-07-06T09:32:52;3.50;;;1.20;;
14342;SDS011;7255;53.596;9.960;2022-07-06T09:35:22;1.50;;;0.80;;
14342;SDS011;7255;53.596;9.960;2022-07-06T09:37:59;2.13;;;0.90;;
14342;SDS011;7255;53.596;9.960;2022-07-06T09:40:26;2.50;;;0.80;;
14342;SDS011;7255;53.596;9.960;2022-07-06T09:42:57;2.57;;;0.97;;
14342;SDS011;7255;53.596;9.960;2022-07-06T09:45:33;1.85;;;0.90;;
14342;SDS011;7255;53.596;9.960;2022-07-06T09:48:04;2.30;;;0.70;;
14342;SDS011;7255;53.596;9.960;2022-07-06T09:50:39;3.37;;;0.70;;
14342;SDS011;7255;53.596;9.960;2022-07-06T09:53:06;2.05;;;1.08;;
14342;SDS011;7255;53.596;9.960;2022-07-06T09:55:33;1.42;;;0.82;;
14342;SDS011;7255;53.596;9.960;2022-07-06T09:57:59;1.50;;;0.80;;
14342;SDS011;7255;53.596;9.960;2022-07-06T10:00:25;2.17;;;0.82;;
14342;SDS011;7255;53.596;9.960;2022-07-06T10:02:52;3.95;;;0.90;;
14342;SDS011;7255;53.596;9.960;2022-07-06T10:05:19;2.00;;;0.85;;
14342;SDS011;7255;53.596;9.960;2022-07-06T10:07:53;2.20;;;0.65;;
14342;SDS011;7255;53.596;9.960;2022-07-06T10:10:22;1.85;;;0.70;;
14342;SDS011;7255;53.596;9.960;2022-07-06T10:12:51;1.55;;;0.80;;
14342;SDS011;7255;53.596;9.960;2022-07-06T10:15:20;1.50;;;0.90;;
14342;SDS011;7255;53.596;9.960;2022-07-06T10:17:48;1.85;;;1.08;;
14342;SDS011;7255;53.596;9.960;2022-07-06T10:20:16;1.98;;;1.10;;
14342;SDS011;7255;53.596;9.960;2022-07-06T10:22:43;2.47;;;0.90;;
14342;SDS011;7255;53.596;9.960;2022-07-06T10:25:12;3.37;;;1.10;;
14342;SDS011;7255;53.596;9.960;2022-07-06T10:27:39;2.83;;;1.15;;
14342;SDS011;7255;53.596;9.960;2022-07-06T10:30:08;2.55;;;1.12;;
14342;SDS011;7255;53.596;9.960;2022-07-06T10:32:36;3.55;;;1.55;;
14342;SDS011;7255;53.596;9.960;2022-07-06T10:35:05;2.57;;;1.67;;
14342;SDS011;7255;53.596;9.960;2022-07-06T10:37:32;3.03;;;1.90;;
14342;SDS011;7255;53.596;9.960;2022-07-06T10:39:59;2.53;;;1.52;;
14342;SDS011;7255;53.596;9.960;2022-07-06T10:42:45;4.03;;;1.58;;
14342;SDS011;7255;53.596;9.960;2022-07-06T10:45:15;3.30;;;1.50;;
14342;SDS011;7255;53.596;9.960;2022-07-06T10:47:46;2.90;;;1.37;;
14342;SDS011;7255;53.596;9.960;2022-07-06T10:50:13;2.40;;;1.30;;
14342;SDS011;7255;53.596;9.960;2022-07-06T10:52:49;2.85;;;1.00;;
14342;SDS011;7255;53.596;9.960;2022-07-06T10:55:31;3.50;;;1.30;;
14342;SDS011;7255;53.596;9.960;2022-07-06T10:57:59;4.05;;;1.40;;
14342;SDS011;7255;53.596;9.960;2022-07-06T11:00:26;1.90;;;1.02;;
14342;SDS011;7255;53.596;9.960;2022-07-06T11:05:57;3.20;;;1.30;;
14342;SDS011;7255;53.596;9.960;2022-07-06T11:08:28;3.30;;;1.30;;
14342;SDS011;7255;53.596;9.960;2022-07-06T11:11:10;1.70;;;1.10;;
14342;SDS011;7255;53.596;9.960;2022-07-06T11:13:43;2.83;;;1.12;;
14342;SDS011;7255;53.596;9.960;2022-07-06T11:16:13;2.87;;;1.13;;
14342;SDS011;7255;53.596;9.960;2022-07-06T11:18:40;3.25;;;1.17;;
14342;SDS011;7255;53.596;9.960;2022-07-06T11:21:21;2.30;;;1.10;;
14342;SDS011;7255;53.596;9.960;2022-07-06T11:23:49;2.95;;;1.00;;
14342;SDS011;7255;53.596;9.960;2022-07-06T11:26:16;4.68;;;1.10;;
14342;SDS011;7255;53.596;9.960;2022-07-06T11:28:46;3.95;;;1.15;;
14342;SDS011;7255;53.596;9.960;2022-07-06T11:31:14;3.30;;;1.13;;
14342;SDS011;7255;53.596;9.960;2022-07-06T11:33:41;3.57;;;1.10;;
14342;SDS011;7255;53.596;9.960;2022-07-06T11:36:11;3.20;;;1.20;;
14342;SDS011;7255;53.596;9.960;2022-07-06T11:38:42;2.87;;;1.00;;
14342;SDS011;7255;53.596;9.960;2022-07-06T11:41:09;3.40;;;1.23;;
14342;SDS011;7255;53.596;9.960;2022-07-06T11:43:37;4.60;;;1.40;;
14342;SDS011;7255;53.596;9.960;2022-07-06T11:46:09;3.13;;;1.10;;
14342;SDS011;7255;53.596;9.960;2022-07-06T11:48:45;2.63;;;1.10;;
14342;SDS011;7255;53.596;9.960;2022-07-06T11:51:12;3.55;;;1.33;;
14342;SDS011;7255;53.596;9.960;2022-07-06T11:53:41;4.07;;;1.00;;
14342;SDS011;7255;53.596;9.960;2022-07-06T11:56:10;2.65;;;1.20;;
14342;SDS011;7255;53.596;9.960;2022-07-06T11:58:36;3.80;;;1.10;;
14342;SDS011;7255;53.596;9.960;2022-07-06T12:01:05;2.78;;;1.00;;
14342;SDS011;7255;53.596;9.960;2022-07-06T12:03:34;4.70;;;1.17;;
14342;SDS011;7255;53.596;9.960;2022-07-06T12:06:01;2.50;;;1.20;;
14342;SDS011;7255;53.596;9.960;2022-07-06T12:08:27;2.33;;;0.88;;
14342;SDS011;7255;53.596;9.960;2022-07-06T12:10:54;3.37;;;0.80;;
14342;SDS011;7255;53.596;9.960;2022-07-06T12:13:20;3.28;;;1.00;;
14342;SDS011;7255;53.596;9.960;2022-07-06T12:15:47;3.62;;;1.00;;
14342;SDS011;7255;53.596;9.960;2022-07-06T12:18:13;3.10;;;1.00;;
14342;SDS011;7255;53.596;9.960;2022-07-06T12:20:41;2.85;;;0.98;;
14342;SDS011;7255;53.596;9.960;2022-07-06T12:23:07;2.85;;;1.20;;
14342;SDS011;7255;53.596;9.960;2022-07-06T12:25:35;2.40;;;0.90;;
14342;SDS011;7255;53.596;9.960;2022-07-06T12:28:02;2.25;;;0.90;;
14342;SDS011;7255;53.596;9.960;2022-07-06T12:30:29;3.25;;;1.08;;
14342;SDS011;7255;53.596;9.960;2022-07-06T12:33:12;1.80;;;0.60;;
14342;SDS011;7255;53.596;9.960;2022-07-06T12:35:41;3.33;;;0.90;;
14342;SDS011;7255;53.596;9.960;2022-07-06T12:38:07;2.87;;;0.93;;
14342;SDS011;7255;53.596;9.960;2022-07-06T12:40:35;1.58;;;0.93;;
14342;SDS011;7255;53.596;9.960;2022-07-06T12:43:02;3.23;;;0.97;;
14342;SDS011;7255;53.596;9.960;2022-07-06T12:45:28;2.93;;;1.10;;
14342;SDS011;7255;53.596;9.960;2022-07-06T12:47:58;2.47;;;0.80;;
14342;SDS011;7255;53.596;9.960;2022-07-06T12:50:32;2.78;;;0.77;;
14342;SDS011;7255;53.596;9.960;2022-07-06T12:53:00;3.58;;;0.90;;
14342;SDS011;7255;53.596;9.960;2022-07-06T12:55:28;2.20;;;1.00;;
14342;SDS011;7255;53.596;9.960;2022-07-06T12:57:56;3.90;;;0.90;;
14342;SDS011;7255;53.596;9.960;2022-07-06T13:00:24;2.22;;;0.98;;
14342;SDS011;7255;53.596;9.960;2022-07-06T13:02:51;1.60;;;0.85;;
14342;SDS011;7255;53.596;9.960;2022-07-06T13:05:21;2.53;;;0.88;;
14342;SDS011;7255;53.596;9.960;2022-07-06T13:07:52;0.93;;;0.75;;
14342;SDS011;7255;53.596;9.960;2022-07-06T13:10:22;1.80;;;0.80;;
14342;SDS011;7255;53.596;9.960;2022-07-06T13:12:49;2.20;;;1.05;;
14342;SDS011;7255;53.596;9.960;2022-07-06T13:15:15;2.03;;;0.80;;
14342;SDS011;7255;53.596;9.960;2022-07-06T13:17:42;2.40;;;0.80;;
14342;SDS011;7255;53.596;9.960;2022-07-06T13:20:09;3.22;;;1.00;;
14342;SDS011;7255;53.596;9.960;2022-07-06T13:22:37;3.28;;;0.80;;
14342;SDS011;7255;53.596;9.960;2022-07-06T13:25:05;3.95;;;1.08;;
14342;SDS011;7255;53.596;9.960;2022-07-06T13:27:33;2.35;;;0.80;;
14342;SDS011;7255;53.596;9.960;2022-07-06T13:30:00;2.50;;;0.90;;
14342;SDS011;7255;53.596;9.960;2022-07-06T13:32:26;2.85;;;0.93;;
14342;SDS011;7255;53.596;9.960;2022-07-06T13:34:53;4.25;;;1.08;;
14342;SDS011;7255;53.596;9.960;2022-07-06T13:37:19;3.80;;;0.93;;
14342;SDS011;7255;53.596;9.960;2022-07-06T13:39:46;4.55;;;1.00;;
14342;SDS011;7255;53.596;9.960;2022-07-06T13:42:12;2.65;;;0.75;;
14342;SDS011;7255;53.596;9.960;2022-07-06T13:44:40;1.27;;;0.65;;
14342;SDS011;7255;53.596;9.960;2022-07-06T13:47:06;1.43;;;0.70;;
14342;SDS011;7255;53.596;9.960;2022-07-06T13:49:33;3.00;;;1.00;;
14342;SDS011;7255;53.596;9.960;2022-07-06T13:51:59;2.53;;;0.70;;
14342;SDS011;7255;53.596;9.960;2022-07-06T13:54:28;1.87;;;0.70;;
14342;SDS011;7255;53.596;9.960;2022-07-06T13:56:56;3.00;;;0.82;;
14342;SDS011;7255;53.596;9.960;2022-07-06T13:59:23;2.90;;;0.90;;
14342;SDS011;7255;53.596;9.960;2022-07-06T14:01:51;1.90;;;0.62;;
14342;SDS011;7255;53.596;9.960;2022-07-06T14:04:17;1.17;;;0.65;;
14342;SDS011;7255;53.596;9.960;2022-07-06T14:06:43;3.80;;;0.80;;
14342;SDS011;7255;53.596;9.960;2022-07-06T14:09:10;4.80;;;1.10;;
14342;SDS011;7255;53.596;9.960;2022-07-06T14:11:36;3.60;;;0.90;;
14342;SDS011;7255;53.596;9.960;2022-07-06T14:14:02;3.27;;;0.80;;
14342;SDS011;7255;53.596;9.960;2022-07-06T14:16:31;2.20;;;0.85;;
14342;SDS011;7255;53.596;9.960;2022-07-06T14:19:00;2.42;;;0.80;;
14342;SDS011;7255;53.596;9.960;2022-07-06T14:21:26;2.55;;;0.70;;
14342;SDS011;7255;53.596;9.960;2022-07-06T14:23:53;2.03;;;0.70;;
14342;SDS011;7255;53.596;9.960;2022-07-06T14:26:19;2.45;;;0.75;;
14342;SDS011;7255;53.596;9.960;2022-07-06T14:28:46;2.80;;;0.80;;
14342;SDS011;7255;53.596;9.960;2022-07-06T14:31:12;1.48;;;0.80;;
14342;SDS011;7255;53.596;9.960;2022-07-06T14:33:39;2.77;;;0.90;;
14342;SDS011;7255;53.596;9.960;2022-07-06T14:36:07;2.23;;;0.80;;
14342;SDS011;7255;53.596;9.960;2022-07-06T14:38:33;3.70;;;0.90;;
14342;SDS011;7255;53.596;9.960;2022-07-06T14:41:00;2.87;;;0.80;;
14342;SDS011;7255;53.596;9.960;2022-07-06T14:43:26;3.60;;;1.10;;
14342;SDS011;7255;53.596;9.960;2022-07-06T14:45:52;2.40;;;0.90;;
14342;SDS011;7255;53.596;9.960;2022-07-06T14:48:19;2.67;;;0.70;;
14342;SDS011;7255;53.596;9.960;2022-07-06T14:50:45;2.05;;;0.70;;
14342;SDS011;7255;53.596;9.960;2022-07-06T14:53:13;2.58;;;0.73;;
14342;SDS011;7255;53.596;9.960;2022-07-06T14:55:39;2.33;;;0.70;;
14342;SDS011;7255;53.596;9.960;2022-07-06T14:58:05;3.58;;;1.17;;
14342;SDS011;7255;53.596;9.960;2022-07-06T15:00:32;2.23;;;0.70;;
14342;SDS011;7255;53.596;9.960;2022-07-06T15:02:58;3.22;;;0.93;;
14342;SDS011;7255;53.596;9.960;2022-07-06T15:05:25;1.20;;;0.65;;